createdAt,value
2022-10-11T00:04:59.256Z,100414.15
2022-10-11T00:10:01.962Z,100413.25
2022-10-11T00:15:05.781Z,100412.71
2022-10-11T00:20:09.661Z,100413.56
2022-10-11T00:25:13.355Z,100415.32
2022-10-11T00:30:16.117Z,100414.26
2022-10-11T00:35:18.807Z,100414.08
2022-10-11T00:40:22.041Z,100413.31
2022-10-11T00:45:27.893Z,100417.30
2022-10-11T00:50:34.276Z,100412.94
2022-10-11T00:55:48.348Z,100411.36
2022-10-11T01:00:52.049Z,100411.21
2022-10-11T01:05:55.874Z,100409.50
2022-10-11T01:10:59.212Z,100401.10
2022-10-11T01:16:33.741Z,100404.02
2022-10-11T01:21:52.551Z,100407.63
2022-10-11T01:27:29.324Z,100407.34
2022-10-11T01:32:59.328Z,100402.06
2022-10-11T01:38:11.396Z,100396.88
2022-10-11T01:43:16.433Z,100394.61
2022-10-11T01:48:19.426Z,100389.77
2022-10-11T01:53:46.484Z,100381.24
2022-10-11T01:58:58.333Z,100384.69
2022-10-11T02:04:39.629Z,100386.48
2022-10-11T02:09:52.547Z,100380.27
2022-10-11T02:14:56.736Z,100381.28
2022-10-11T02:20:03.890Z,100383.71
2022-10-11T02:25:13.237Z,100390.31
2022-10-11T02:30:16.909Z,100383.64
2022-10-11T02:35:24.370Z,100397.57
2022-10-11T02:40:31.080Z,100403.46
2022-10-11T02:45:42.193Z,100402.42
2022-10-11T02:50:45.112Z,100397.80
2022-10-11T02:55:49.641Z,100402.07
2022-10-11T03:00:52.526Z,100403.22
2022-10-11T03:06:03.866Z,100411.36
2022-10-11T03:11:07.045Z,100419.44
2022-10-11T03:16:10.163Z,100425.05
2022-10-11T03:21:13.559Z,100430.73
2022-10-11T03:26:16.201Z,100426.16
2022-10-11T03:31:18.949Z,100427.49
2022-10-11T03:36:21.963Z,100429.17
2022-10-11T03:41:24.663Z,100435.88
2022-10-11T03:46:27.269Z,100439.37
2022-10-11T03:51:30.370Z,100444.20
2022-10-11T03:56:33.065Z,100445.34
2022-10-11T04:01:38.209Z,100445.79
2022-10-11T04:06:40.906Z,100446.82
2022-10-11T04:11:43.621Z,100456.28
2022-10-11T04:16:46.249Z,100462.16
2022-10-11T04:21:49.326Z,100465.26
2022-10-11T04:26:52.127Z,100470.02
2022-10-11T04:31:54.823Z,100471.89
2022-10-11T04:36:57.524Z,100480.27
2022-10-11T04:42:00.225Z,100482.88
2022-10-11T04:47:03.012Z,100479.08
2022-10-11T04:52:06.047Z,100489.19
2022-10-11T04:57:08.709Z,100495.58
2022-10-11T05:02:11.389Z,100497.63
2022-10-11T05:07:14.333Z,100506.89
2022-10-11T05:12:17.029Z,100515.60
2022-10-11T05:17:19.684Z,100525.71
2022-10-11T05:22:22.303Z,100529.92
2022-10-11T05:27:25.542Z,100541.11
2022-10-11T05:32:28.329Z,100545.45
2022-10-11T05:37:31.420Z,100548.17
2022-10-11T05:42:34.270Z,100550.84
2022-10-11T05:47:37.205Z,100564.80
2022-10-11T05:52:39.880Z,100572.16
2022-10-11T05:57:43.013Z,100575.59
2022-10-11T06:02:45.665Z,100584.47
2022-10-11T06:07:48.864Z,100586.52
2022-10-11T06:12:51.841Z,100592.13
2022-10-11T06:17:54.611Z,100600.69
2022-10-11T06:22:58.929Z,100616.16
2022-10-11T06:28:01.750Z,100624.83
2022-10-11T06:33:05.077Z,100633.27
2022-10-11T06:38:08.030Z,100640.23
2022-10-11T06:43:10.825Z,100650.27
2022-10-11T06:48:13.758Z,100658.99
2022-10-11T06:53:16.455Z,100662.57
2022-10-11T06:58:19.274Z,100670.48
2022-10-11T07:03:22.231Z,100678.18
2022-10-11T07:08:25.037Z,100689.69
2022-10-11T07:13:28.247Z,100700.04
2022-10-11T07:18:32.310Z,100702.55
2022-10-11T07:23:35.387Z,100709.52
2022-10-11T07:28:39.857Z,100716.96
2022-10-11T07:33:42.951Z,100723.16
2022-10-11T07:38:46.983Z,100732.49
2022-10-11T07:43:52.237Z,100736.83
2022-10-11T07:48:55.261Z,100744.42
2022-10-11T07:53:59.771Z,100751.61
2022-10-11T07:59:05.119Z,100757.41
2022-10-11T08:04:07.945Z,100763.98
2022-10-11T08:09:10.662Z,100770.96
2022-10-11T08:14:13.398Z,100776.91
2022-10-11T08:19:18.620Z,100781.89
2022-10-11T08:24:21.416Z,100794.14
2022-10-11T08:29:24.164Z,100796.77
2022-10-11T08:34:26.993Z,100802.95
2022-10-11T08:39:30.097Z,100804.58
2022-10-11T08:44:58.275Z,100802.55
2022-10-11T08:50:00.188Z,100815.08
2022-10-11T08:55:12.529Z,100818.96
2022-10-11T09:00:18.845Z,100822.41
2022-10-11T09:05:25.654Z,100834.89
2022-10-11T09:10:31.139Z,100836.91
2022-10-11T09:15:43.875Z,100846.52
2022-10-11T09:21:16.971Z,100849.89
2022-10-11T09:26:29.845Z,100856.66
2022-10-11T09:31:32.989Z,100862.55
2022-10-11T09:36:54.383Z,100862.79
2022-10-11T09:42:01.763Z,100870.77
2022-10-11T09:47:06.224Z,100874.55
2022-10-11T09:52:16.576Z,100878.91
2022-10-11T09:57:36.534Z,100885.04
2022-10-11T10:02:48.814Z,100890.60
2022-10-11T10:08:09.839Z,100894.71
2022-10-11T10:13:23.407Z,100898.72
2022-10-11T10:18:32.202Z,100896.23
2022-10-11T10:23:36.805Z,100903.39
2022-10-11T10:28:53.763Z,100907.52
2022-10-11T10:33:57.955Z,100909.80
2022-10-11T10:39:36.359Z,100917.28
2022-10-11T10:44:39.093Z,100923.86
2022-10-11T10:50:01.260Z,100925.91
2022-10-11T10:55:24.266Z,100934.14
2022-10-11T11:00:36.300Z,100934.77
2022-10-11T11:05:54.055Z,100928.46
2022-10-11T11:11:34.491Z,100926.30
2022-10-11T11:17:06.043Z,100929.33
2022-10-11T11:22:32.497Z,100932.82
2022-10-11T11:27:47.547Z,100929.63
2022-10-11T11:33:10.482Z,100932.48
2022-10-11T11:38:29.433Z,100946.26
2022-10-11T11:44:00.952Z,100948.64
2022-10-11T11:49:13.152Z,100944.54
2022-10-11T11:54:44.911Z,100945.04
2022-10-11T11:59:50.063Z,100944.41
2022-10-11T12:04:53.336Z,100931.80
2022-10-11T12:10:19.172Z,100930.09
2022-10-11T12:15:26.217Z,100930.46
2022-10-11T12:20:37.959Z,100925.94
2022-10-11T12:25:42.467Z,100931.66
2022-10-11T12:30:47.939Z,100929.86
2022-10-11T12:35:53.441Z,100934.86
2022-10-11T12:41:13.367Z,100937.54
2022-10-11T12:46:28.130Z,100943.84
2022-10-11T12:51:50.640Z,100950.55
2022-10-11T12:57:12.188Z,100946.15
2022-10-11T13:02:35.073Z,100961.06
2022-10-11T13:07:41.443Z,100965.98
2022-10-11T13:12:47.804Z,100974.42
2022-10-11T13:17:52.908Z,100985.84
2022-10-11T13:22:56.723Z,100996.11
2022-10-11T13:27:59.655Z,101004.08
2022-10-11T13:33:06.615Z,101005.45
2022-10-11T13:38:18.338Z,100997.63
2022-10-11T13:43:24.955Z,100993.29
2022-10-11T13:48:31.676Z,100990.73
2022-10-11T13:53:35.664Z,100992.23
2022-10-11T13:58:47.723Z,100998.22
2022-10-11T14:03:58.972Z,101001.13
2022-10-11T14:09:01.974Z,100993.93
2022-10-11T14:14:28.187Z,100999.01
2022-10-11T14:19:30.722Z,101000.26
2022-10-11T14:24:33.370Z,101003.36
2022-10-11T14:29:39.601Z,101008.52
2022-10-11T14:34:47.721Z,101008.38
2022-10-11T14:39:50.943Z,101009.95
2022-10-11T14:44:53.648Z,101012.63
2022-10-11T14:49:56.532Z,101020.78
2022-10-11T14:54:59.233Z,101029.34
2022-10-11T15:00:02.592Z,101033.55
2022-10-11T15:05:06.266Z,101042.25
2022-10-11T15:10:20.432Z,101047.14
2022-10-11T15:15:25.654Z,101055.19
2022-10-11T15:20:33.350Z,101056.56
2022-10-11T15:25:37.823Z,101062.10
2022-10-11T15:30:41.898Z,101063.73
2022-10-11T15:35:44.885Z,101068.45
2022-10-11T15:40:49.257Z,101075.16
2022-10-11T15:45:52.290Z,101078.03
2022-10-11T15:50:55.462Z,101086.20
2022-10-11T15:56:02.079Z,101090.21
2022-10-11T16:01:09.346Z,101096.19
2022-10-11T16:06:13.347Z,101102.48
2022-10-11T16:11:16.189Z,101102.04
2022-10-11T16:16:18.949Z,101108.95
2022-10-11T16:21:23.598Z,101110.27
2022-10-11T16:26:26.310Z,101112.50
2022-10-11T16:31:29.005Z,101117.48
2022-10-11T16:36:32.065Z,101120.77
2022-10-11T16:41:35.121Z,101121.39
2022-10-11T16:46:37.921Z,101119.58
2022-10-11T16:51:40.811Z,101120.92
2022-10-11T16:56:43.849Z,101120.52
2022-10-11T17:01:46.562Z,101123.35
2022-10-11T17:06:49.849Z,101119.47
2022-10-11T17:11:52.751Z,101127.33
2022-10-11T17:16:55.362Z,101133.62
2022-10-11T17:21:58.142Z,101137.33
2022-10-11T17:27:00.716Z,101139.95
2022-10-11T17:32:03.931Z,101146.38
2022-10-11T17:37:08.966Z,101148.01
2022-10-11T17:42:11.806Z,101141.88
2022-10-11T17:47:15.130Z,101145.94
2022-10-11T17:52:17.754Z,101142.16
2022-10-11T17:57:20.513Z,101148.08
2022-10-11T18:02:23.129Z,101150.27
2022-10-11T18:07:25.808Z,101153.66
2022-10-11T18:12:28.475Z,101154.50
2022-10-11T18:17:31.216Z,101157.70
2022-10-11T18:22:34.073Z,101164.55
2022-10-11T18:27:36.762Z,101164.16
2022-10-11T18:32:39.608Z,101167.98
2022-10-11T18:37:42.512Z,101172.23
2022-10-11T18:42:45.136Z,101172.95
2022-10-11T18:47:51.306Z,101174.31
2022-10-11T18:52:54.070Z,101179.04
2022-10-11T18:57:57.811Z,101181.97
2022-10-11T19:03:00.444Z,101180.99
2022-10-11T19:08:03.087Z,101184.30
2022-10-11T19:13:05.799Z,101186.61
2022-10-11T19:18:09.258Z,101191.48
2022-10-11T19:23:11.920Z,101187.55
2022-10-11T19:28:15.816Z,101183.98
2022-10-11T19:33:18.711Z,101182.75
2022-10-11T19:43:29.162Z,101192.45
2022-10-11T19:48:32.991Z,101191.79
2022-10-11T19:53:36.314Z,101196.54
2022-10-11T19:58:39.804Z,101199.67
2022-10-11T20:03:44.033Z,101201.63
2022-10-11T20:08:59.819Z,101199.62
2022-10-11T20:14:08.789Z,101202.98
2022-10-11T20:19:11.467Z,101209.61
2022-10-11T20:24:14.200Z,101214.94
2022-10-11T20:29:16.903Z,101212.44
2022-10-11T20:34:19.496Z,101209.32
2022-10-11T20:39:22.179Z,101212.35
2022-10-11T20:44:24.918Z,101212.45
2022-10-11T20:49:27.999Z,101215.35
2022-10-11T20:54:30.905Z,101208.23
2022-10-11T20:59:33.528Z,101212.55
2022-10-11T21:04:36.306Z,101217.23
2022-10-11T21:09:39.001Z,101214.41
2022-10-11T21:14:42.312Z,101210.27
2022-10-11T21:19:44.946Z,101206.55
2022-10-11T21:24:47.531Z,101209.20
2022-10-11T21:29:51.222Z,101208.60
2022-10-11T21:34:53.826Z,101212.75
2022-10-11T21:39:56.523Z,101218.88
2022-10-11T21:44:59.155Z,101218.71
2022-10-11T21:50:01.923Z,101216.80
2022-10-11T21:55:05.210Z,101219.50
2022-10-11T22:00:08.927Z,101224.24
2022-10-11T22:05:11.598Z,101222.38
2022-10-11T22:10:14.865Z,101225.17
2022-10-11T22:15:17.563Z,101224.32
2022-10-11T22:20:20.262Z,101224.73
2022-10-11T22:25:23.070Z,101227.10
2022-10-11T22:30:25.728Z,101230.24
2022-10-11T22:35:29.672Z,101226.72
2022-10-11T22:40:34.129Z,101224.20
2022-10-11T22:45:36.742Z,101222.00
2022-10-11T22:50:39.833Z,101223.45
2022-10-11T22:55:42.735Z,101223.15
2022-10-11T23:00:45.382Z,101226.28
2022-10-11T23:05:58.298Z,101225.74
2022-10-11T23:11:08.038Z,101233.52
2022-10-11T23:16:12.441Z,101225.36
2022-10-11T23:21:15.125Z,101226.98
2022-10-11T23:26:17.754Z,101234.18
2022-10-11T23:31:20.879Z,101237.16
2022-10-11T23:36:25.525Z,101233.89
2022-10-11T23:41:29.781Z,101235.38
2022-10-11T23:46:32.417Z,101240.12
2022-10-11T23:51:35.153Z,101240.08
2022-10-11T23:56:38.243Z,101242.71
